createdAt,value
2017-09-30T00:00:50.014Z,82.39
2017-09-30T00:03:16.880Z,81.94
2017-09-30T00:05:44.510Z,81.82
2017-09-30T00:08:11.362Z,81.63
2017-09-30T00:10:38.205Z,81.83
2017-09-30T00:13:05.059Z,81.75
2017-09-30T00:15:31.868Z,85.54
2017-09-30T00:17:58.740Z,84.14
2017-09-30T00:20:25.655Z,82.57
2017-09-30T00:22:52.487Z,83.64
2017-09-30T00:25:20.083Z,85.07
2017-09-30T00:27:46.925Z,83.43
2017-09-30T00:30:13.770Z,84.74
2017-09-30T00:32:40.622Z,84.59
2017-09-30T00:35:07.472Z,82.86
2017-09-30T00:37:34.436Z,86.48
2017-09-30T00:40:01.297Z,85.58
2017-09-30T00:42:28.173Z,86.19
2017-09-30T00:44:55.091Z,88.14
2017-09-30T00:47:21.949Z,88.15
2017-09-30T00:49:48.825Z,87.98
2017-09-30T00:52:15.717Z,85.57
2017-09-30T00:54:42.609Z,87.28
2017-09-30T00:57:10.269Z,86.89
2017-09-30T00:59:37.167Z,85.62
2017-09-30T01:02:04.787Z,88.37
2017-09-30T01:04:31.664Z,88.31
2017-09-30T01:06:58.527Z,86.77
2017-09-30T01:09:25.359Z,84.43
2017-09-30T01:11:52.278Z,85.53
2017-09-30T01:14:19.900Z,88.25
2017-09-30T01:16:46.801Z,89.16
2017-09-30T01:19:13.703Z,89.20
2017-09-30T01:21:40.683Z,90.39
2017-09-30T01:24:07.583Z,86.36
2017-09-30T01:26:34.478Z,89.70
2017-09-30T01:29:02.108Z,89.11
2017-09-30T01:31:29.005Z,87.98
2017-09-30T01:33:55.882Z,88.28
2017-09-30T01:36:23.547Z,88.32
2017-09-30T01:38:50.470Z,88.28
2017-09-30T01:41:17.341Z,88.46
2017-09-30T01:43:44.237Z,89.56
2017-09-30T01:46:11.869Z,88.15
2017-09-30T01:48:38.793Z,87.54
2017-09-30T01:51:06.473Z,88.86
2017-09-30T01:53:33.406Z,88.61
2017-09-30T01:56:00.309Z,87.19
2017-09-30T01:58:27.217Z,88.60
2017-09-30T02:00:54.117Z,89.71
2017-09-30T02:03:21.019Z,89.56
2017-09-30T02:05:48.657Z,88.28
2017-09-30T02:08:16.309Z,89.13
2017-09-30T02:10:43.204Z,88.77
2017-09-30T02:13:10.062Z,90.51
2017-09-30T02:15:37.677Z,89.50
2017-09-30T02:18:04.508Z,89.71
2017-09-30T02:20:32.167Z,90.04
2017-09-30T02:22:59.041Z,87.86
2017-09-30T02:25:26.625Z,86.64
2017-09-30T02:27:54.210Z,88.96
2017-09-30T02:30:21.093Z,86.19
2017-09-30T02:32:48.689Z,85.27
2017-09-30T02:35:15.554Z,84.96
2017-09-30T02:37:42.436Z,89.87
2017-09-30T02:40:09.310Z,91.05
2017-09-30T02:42:36.170Z,86.73
2017-09-30T02:45:03.031Z,89.23
2017-09-30T02:47:29.906Z,86.11
2017-09-30T02:49:56.729Z,87.21
2017-09-30T02:52:23.560Z,90.86
2017-09-30T02:54:50.466Z,86.67
2017-09-30T02:57:17.376Z,87.50
2017-09-30T02:59:44.209Z,86.27
2017-09-30T03:02:11.772Z,86.10
2017-09-30T03:04:38.669Z,86.20
2017-09-30T03:07:06.261Z,86.54
2017-09-30T03:09:33.097Z,90.04
2017-09-30T03:12:00.651Z,92.05
2017-09-30T03:14:27.507Z,90.44
2017-09-30T03:16:54.374Z,90.63
2017-09-30T03:19:21.224Z,90.01
2017-09-30T03:21:48.060Z,90.20
2017-09-30T03:24:14.900Z,92.12
2017-09-30T03:26:41.739Z,91.99
2017-09-30T03:29:09.324Z,90.79
2017-09-30T03:31:36.941Z,91.29
2017-09-30T03:34:03.794Z,92.70
2017-09-30T03:36:30.690Z,92.51
2017-09-30T03:38:57.582Z,92.20
2017-09-30T03:41:25.180Z,90.15
2017-09-30T03:43:52.026Z,88.00
2017-09-30T03:46:18.940Z,89.28
2017-09-30T03:48:45.810Z,87.61
2017-09-30T03:51:12.642Z,89.61
2017-09-30T03:53:39.463Z,89.30
2017-09-30T03:56:07.040Z,87.75
2017-09-30T03:58:33.866Z,88.18
2017-09-30T04:01:00.721Z,88.00
2017-09-30T04:03:27.571Z,88.97
2017-09-30T04:05:54.434Z,89.56
2017-09-30T04:08:21.270Z,89.43
2017-09-30T04:10:48.080Z,90.62
2017-09-30T04:13:14.915Z,90.08
2017-09-30T04:15:41.790Z,90.93
2017-09-30T04:18:08.616Z,92.33
2017-09-30T04:20:35.533Z,91.46
2017-09-30T04:23:02.357Z,90.80
2017-09-30T04:25:29.940Z,89.90
2017-09-30T04:27:56.827Z,92.15
2017-09-30T04:30:23.679Z,92.67
2017-09-30T04:32:50.546Z,91.53
2017-09-30T04:35:17.375Z,91.63
2017-09-30T04:37:44.213Z,88.99
2017-09-30T04:40:11.854Z,91.77
2017-09-30T04:42:38.695Z,90.32
2017-09-30T04:45:05.529Z,92.02
2017-09-30T04:47:32.392Z,89.72
2017-09-30T04:49:59.211Z,88.37
2017-09-30T04:52:26.048Z,91.72
2017-09-30T04:54:52.902Z,89.93
2017-09-30T04:57:19.724Z,92.62
2017-09-30T04:59:46.552Z,88.61
2017-09-30T05:02:13.414Z,91.44
2017-09-30T05:04:40.285Z,92.37
2017-09-30T05:07:07.144Z,93.25
2017-09-30T05:09:33.984Z,93.74
2017-09-30T05:12:00.866Z,93.92
2017-09-30T05:14:27.708Z,93.88
2017-09-30T05:16:54.580Z,93.64
2017-09-30T05:19:21.435Z,93.85
2017-09-30T05:21:48.290Z,93.42
2017-09-30T05:24:15.175Z,89.43
2017-09-30T05:26:42.763Z,90.58
2017-09-30T05:29:10.364Z,93.05
2017-09-30T05:31:37.162Z,93.00
2017-09-30T05:34:03.991Z,88.70
2017-09-30T05:36:30.804Z,87.88
2017-09-30T05:38:57.619Z,92.11
2017-09-30T05:41:24.466Z,91.76
2017-09-30T05:43:51.282Z,91.55
2017-09-30T05:46:18.128Z,89.77
2017-09-30T05:48:45.037Z,91.57
2017-09-30T05:51:12.610Z,91.83
2017-09-30T05:53:40.192Z,92.95
2017-09-30T05:56:07.763Z,90.94
2017-09-30T05:58:35.388Z,91.12
2017-09-30T06:01:02.215Z,91.69
2017-09-30T06:03:29.034Z,90.68
2017-09-30T06:05:55.902Z,91.17
2017-09-30T06:08:22.716Z,90.53
2017-09-30T06:10:49.507Z,89.08
2017-09-30T06:13:16.374Z,91.07
2017-09-30T06:15:43.203Z,89.59
2017-09-30T06:18:10.168Z,91.46
2017-09-30T06:20:37.068Z,88.96
2017-09-30T06:23:03.962Z,89.99
2017-09-30T06:25:30.848Z,88.14
2017-09-30T06:27:57.694Z,90.32
2017-09-30T06:30:24.515Z,89.21
2017-09-30T06:32:51.363Z,88.16
2017-09-30T06:35:18.253Z,87.96
2017-09-30T06:37:45.082Z,87.80
2017-09-30T06:40:11.915Z,87.60
2017-09-30T06:42:38.815Z,87.55
2017-09-30T06:45:05.623Z,90.97
2017-09-30T06:47:32.450Z,88.37
2017-09-30T06:49:59.314Z,87.36
2017-09-30T06:52:28.321Z,89.99
2017-09-30T06:54:56.053Z,88.07
2017-09-30T06:57:22.944Z,91.50
2017-09-30T06:59:49.791Z,92.33
2017-09-30T07:02:16.725Z,89.83
2017-09-30T07:04:43.567Z,89.15
2017-09-30T07:07:11.124Z,87.78
2017-09-30T07:09:38.023Z,87.36
2017-09-30T07:12:04.942Z,88.19
2017-09-30T07:14:31.789Z,91.21
2017-09-30T07:16:59.059Z,90.38
2017-09-30T07:19:26.022Z,89.81
2017-09-30T07:21:52.928Z,87.76
2017-09-30T07:24:20.534Z,88.92
2017-09-30T07:26:47.382Z,90.91
2017-09-30T07:29:14.215Z,91.94
2017-09-30T07:31:41.036Z,90.24
2017-09-30T07:34:07.889Z,87.94
2017-09-30T07:36:34.757Z,87.10
2017-09-30T07:39:01.577Z,86.69
2017-09-30T07:41:29.148Z,90.27
2017-09-30T07:43:56.744Z,90.66
2017-09-30T07:46:23.593Z,87.78
2017-09-30T07:48:51.158Z,90.12
2017-09-30T07:51:18.011Z,87.81
2017-09-30T07:53:44.850Z,88.36
2017-09-30T07:56:11.680Z,88.48
2017-09-30T07:58:38.516Z,88.73
2017-09-30T08:01:06.118Z,88.09
2017-09-30T08:03:32.939Z,89.15
2017-09-30T08:06:00.562Z,88.83
2017-09-30T08:08:27.431Z,90.30
2017-09-30T08:10:54.280Z,88.38
2017-09-30T08:13:21.125Z,88.62
2017-09-30T08:15:47.977Z,88.10
2017-09-30T08:18:15.528Z,90.16
2017-09-30T08:20:42.351Z,88.77
2017-09-30T08:23:09.183Z,89.66
2017-09-30T08:25:36.055Z,91.56
2017-09-30T08:28:02.883Z,92.01
2017-09-30T08:30:29.843Z,90.57
2017-09-30T08:32:56.764Z,88.32
2017-09-30T08:35:23.631Z,87.51
2017-09-30T08:37:50.463Z,90.68
2017-09-30T08:40:17.403Z,88.70
2017-09-30T08:42:45.448Z,89.12
2017-09-30T08:45:13.232Z,90.55
2017-09-30T08:47:40.088Z,90.98
2017-09-30T08:50:07.010Z,91.31
2017-09-30T08:52:33.950Z,90.91
2017-09-30T08:55:00.842Z,91.25
2017-09-30T08:57:27.737Z,92.14
2017-09-30T08:59:54.575Z,93.04
2017-09-30T09:02:21.481Z,93.36
2017-09-30T09:04:48.368Z,92.85
2017-09-30T09:07:15.955Z,90.39
2017-09-30T09:09:43.544Z,89.86
2017-09-30T09:12:10.389Z,92.50
2017-09-30T09:14:37.302Z,92.80
2017-09-30T09:17:04.169Z,91.10
2017-09-30T09:19:31.022Z,91.01
2017-09-30T09:21:57.870Z,92.20
2017-09-30T09:24:24.728Z,92.93
2017-09-30T09:26:51.578Z,90.40
2017-09-30T09:29:18.420Z,88.56
2017-09-30T09:31:46.002Z,88.36
2017-09-30T09:34:13.598Z,90.10
2017-09-30T09:36:40.529Z,88.69
2017-09-30T09:39:07.374Z,87.96
2017-09-30T09:41:34.180Z,87.74
2017-09-30T09:44:01.025Z,87.67
2017-09-30T09:46:28.627Z,89.00
2017-09-30T09:48:55.466Z,88.42
2017-09-30T09:51:23.031Z,87.22
2017-09-30T09:53:49.939Z,87.42
2017-09-30T09:56:16.799Z,89.54
2017-09-30T09:58:43.664Z,90.79
2017-09-30T10:01:10.523Z,88.23
2017-09-30T10:03:37.424Z,87.48
2017-09-30T10:06:04.293Z,86.89
2017-09-30T10:08:31.177Z,89.23
2017-09-30T10:10:58.854Z,89.44
2017-09-30T10:13:26.442Z,88.03
2017-09-30T10:15:54.052Z,86.71
2017-09-30T10:18:20.914Z,90.13
2017-09-30T10:20:47.748Z,89.91
2017-09-30T10:23:14.616Z,90.16
2017-09-30T10:25:41.450Z,89.94
2017-09-30T10:28:09.021Z,88.69
2017-09-30T10:30:36.658Z,89.72
2017-09-30T10:33:03.493Z,88.82
2017-09-30T10:35:30.295Z,89.69
2017-09-30T10:37:57.128Z,90.40
2017-09-30T10:40:23.967Z,87.35
2017-09-30T10:42:50.797Z,87.45
2017-09-30T10:45:17.708Z,87.45
2017-09-30T10:47:44.576Z,87.84
2017-09-30T10:50:11.467Z,86.95
2017-09-30T10:52:38.301Z,86.89
2017-09-30T10:55:05.136Z,86.33
2017-09-30T10:57:32.003Z,87.91
2017-09-30T10:59:58.820Z,87.89
2017-09-30T11:02:25.658Z,86.41
2017-09-30T11:04:52.551Z,86.29
2017-09-30T11:07:19.396Z,86.50
2017-09-30T11:09:46.225Z,89.40
2017-09-30T11:12:13.085Z,89.54
2017-09-30T11:14:39.945Z,89.70
2017-09-30T11:17:06.800Z,88.90
2017-09-30T11:19:33.645Z,89.13
2017-09-30T11:22:01.313Z,89.20
2017-09-30T11:24:29.362Z,88.85
2017-09-30T11:26:56.262Z,89.66
2017-09-30T11:29:24.267Z,89.39
2017-09-30T11:31:51.165Z,88.36
2017-09-30T11:34:18.170Z,89.27
2017-09-30T11:36:44.995Z,88.33
2017-09-30T11:39:11.829Z,89.01
2017-09-30T11:41:38.926Z,87.47
2017-09-30T11:44:05.791Z,87.69
2017-09-30T11:46:32.634Z,88.69
2017-09-30T11:48:59.475Z,87.59
2017-09-30T11:51:26.415Z,87.99
2017-09-30T11:53:53.278Z,87.13
2017-09-30T11:56:20.879Z,86.32
2017-09-30T11:58:47.727Z,85.92
2017-09-30T12:01:15.368Z,85.98
2017-09-30T12:03:42.282Z,87.66
2017-09-30T12:06:09.158Z,86.53
2017-09-30T12:08:36.008Z,87.01
2017-09-30T12:11:02.907Z,86.21
2017-09-30T12:13:29.759Z,87.28
2017-09-30T12:15:56.631Z,85.52
2017-09-30T12:18:23.496Z,85.03
2017-09-30T12:20:50.380Z,84.77
2017-09-30T12:23:17.233Z,84.92
2017-09-30T12:25:44.509Z,85.11
2017-09-30T12:28:12.169Z,85.12
2017-09-30T12:30:39.288Z,87.22
2017-09-30T12:33:06.145Z,86.17
2017-09-30T12:35:33.777Z,86.26
2017-09-30T12:38:00.635Z,86.02
2017-09-30T12:40:27.791Z,87.16
2017-09-30T12:42:54.710Z,87.31
2017-09-30T12:45:22.399Z,87.63
2017-09-30T12:47:49.238Z,86.84
2017-09-30T12:50:16.828Z,85.78
2017-09-30T12:52:44.421Z,85.37
2017-09-30T12:55:11.619Z,84.07
2017-09-30T12:57:40.452Z,84.74
2017-09-30T13:00:07.868Z,85.65
2017-09-30T13:02:34.722Z,85.13
2017-09-30T13:05:01.539Z,86.17
2017-09-30T13:07:28.634Z,85.00
2017-09-30T13:09:56.180Z,87.75
2017-09-30T13:12:23.017Z,88.48
2017-09-30T13:14:49.887Z,87.65
2017-09-30T13:17:16.731Z,87.86
2017-09-30T13:19:45.330Z,85.88
2017-09-30T13:22:12.126Z,86.29
2017-09-30T13:24:38.958Z,87.54
2017-09-30T13:27:05.773Z,87.13
2017-09-30T13:29:32.664Z,87.32
2017-09-30T13:31:59.520Z,86.78
2017-09-30T13:34:26.427Z,87.18
2017-09-30T13:36:53.208Z,85.48
2017-09-30T13:39:20.009Z,86.64
2017-09-30T13:41:46.830Z,87.64
2017-09-30T13:44:13.638Z,87.42
2017-09-30T13:46:40.517Z,85.45
2017-09-30T13:49:07.365Z,87.00
2017-09-30T13:51:34.222Z,88.18
2017-09-30T13:54:01.019Z,87.36
2017-09-30T13:56:27.835Z,87.62
2017-09-30T13:58:54.651Z,88.83
2017-09-30T14:01:22.367Z,88.64
2017-09-30T14:03:49.211Z,87.38
2017-09-30T14:06:16.793Z,89.66
2017-09-30T14:08:43.600Z,89.02
2017-09-30T14:11:11.284Z,88.92
2017-09-30T14:13:39.129Z,88.85
2017-09-30T14:16:05.932Z,88.44
2017-09-30T14:18:32.858Z,88.46
2017-09-30T14:20:59.710Z,86.64
2017-09-30T14:23:27.275Z,86.65
2017-09-30T14:25:54.877Z,86.03
2017-09-30T14:28:21.706Z,85.58
2017-09-30T14:30:48.594Z,87.83
2017-09-30T14:33:15.429Z,86.83
2017-09-30T14:35:42.346Z,86.96
2017-09-30T14:38:09.246Z,86.33
2017-09-30T14:40:36.134Z,87.12
2017-09-30T14:43:02.998Z,87.39
2017-09-30T14:45:29.851Z,86.60
2017-09-30T14:47:57.429Z,88.61
2017-09-30T14:50:25.068Z,88.57
2017-09-30T14:52:51.905Z,86.60
2017-09-30T14:55:18.748Z,87.39
2017-09-30T14:57:45.593Z,87.68
2017-09-30T15:00:13.191Z,87.18
2017-09-30T15:02:40.039Z,88.47
2017-09-30T15:05:07.221Z,86.90
2017-09-30T15:07:34.056Z,87.40
2017-09-30T15:10:01.652Z,88.36
2017-09-30T15:12:28.472Z,88.02
2017-09-30T15:14:55.351Z,87.31
2017-09-30T15:17:22.172Z,89.17
2017-09-30T15:19:49.042Z,86.82
2017-09-30T15:22:15.882Z,88.86
2017-09-30T15:24:42.900Z,87.60
2017-09-30T15:27:09.823Z,86.68
2017-09-30T15:29:36.720Z,87.16
2017-09-30T15:32:03.564Z,85.72
2017-09-30T15:34:30.625Z,89.16
2017-09-30T15:36:57.507Z,87.66
2017-09-30T15:39:24.425Z,87.68
2017-09-30T15:41:51.249Z,87.19
2017-09-30T15:44:18.882Z,87.32
2017-09-30T15:46:45.936Z,87.01
2017-09-30T15:49:12.948Z,86.28
2017-09-30T15:51:39.809Z,86.96
2017-09-30T15:54:07.515Z,86.34
2017-09-30T15:56:34.440Z,85.37
2017-09-30T15:59:01.360Z,86.73
2017-09-30T16:01:28.408Z,87.51
2017-09-30T16:03:55.320Z,87.76
2017-09-30T16:06:24.528Z,87.49
2017-09-30T16:08:51.505Z,85.30
2017-09-30T16:11:18.564Z,86.35
2017-09-30T16:13:45.482Z,86.90
2017-09-30T16:16:12.379Z,84.94
2017-09-30T16:18:39.221Z,84.71
2017-09-30T16:21:06.353Z,87.01
2017-09-30T16:23:33.959Z,87.14
2017-09-30T16:26:00.857Z,84.48
2017-09-30T16:28:27.681Z,86.75
2017-09-30T16:30:54.537Z,87.36
2017-09-30T16:33:21.406Z,85.24
2017-09-30T16:35:48.249Z,82.73
2017-09-30T16:38:15.129Z,82.50
2017-09-30T16:40:41.970Z,80.65
2017-09-30T16:43:09.627Z,83.05
2017-09-30T16:45:36.474Z,84.88
2017-09-30T16:48:03.374Z,81.50
2017-09-30T16:50:30.966Z,84.15
2017-09-30T16:52:57.808Z,84.01
2017-09-30T16:55:25.369Z,83.29
2017-09-30T16:57:52.201Z,82.36
2017-09-30T17:00:19.052Z,83.70
2017-09-30T17:02:45.907Z,84.29
2017-09-30T17:05:12.727Z,84.69
2017-09-30T17:07:40.286Z,84.24
2017-09-30T17:10:07.123Z,84.21
2017-09-30T17:12:33.980Z,85.31
2017-09-30T17:15:00.828Z,86.43
2017-09-30T17:17:27.665Z,82.85
2017-09-30T17:19:54.513Z,83.26
2017-09-30T17:22:22.083Z,83.04
2017-09-30T17:24:49.668Z,83.83
2017-09-30T17:27:17.254Z,84.51
2017-09-30T17:29:44.820Z,82.27
2017-09-30T17:32:12.418Z,84.65
2017-09-30T17:34:39.271Z,84.18
2017-09-30T17:37:06.142Z,82.70
2017-09-30T17:39:33.046Z,84.44
2017-09-30T17:41:59.911Z,85.12
2017-09-30T17:44:26.726Z,85.09
2017-09-30T17:46:53.604Z,87.16
2017-09-30T17:49:20.428Z,84.51
2017-09-30T17:51:47.998Z,85.41
2017-09-30T17:54:15.185Z,84.97
2017-09-30T17:56:42.763Z,84.39
2017-09-30T17:59:10.368Z,84.06
2017-09-30T18:01:37.341Z,85.02
2017-09-30T18:04:04.227Z,83.52
2017-09-30T18:06:31.063Z,84.38
2017-09-30T18:08:57.947Z,84.06
2017-09-30T18:11:24.762Z,84.22
2017-09-30T18:13:51.601Z,83.67
2017-09-30T18:16:21.113Z,83.04
2017-09-30T18:18:47.997Z,82.79
2017-09-30T18:21:15.063Z,82.88
2017-09-30T18:23:42.831Z,83.08
2017-09-30T18:26:09.949Z,84.17
2017-09-30T18:28:37.333Z,86.63
2017-09-30T18:31:05.024Z,87.00
2017-09-30T18:33:33.627Z,84.65
2017-09-30T18:36:00.536Z,83.74
2017-09-30T18:38:28.470Z,83.11
2017-09-30T18:40:55.342Z,82.89
2017-09-30T18:43:22.246Z,84.14
2017-09-30T18:45:49.074Z,84.82
2017-09-30T18:48:15.922Z,83.65
2017-09-30T18:50:42.800Z,86.54
2017-09-30T18:53:09.699Z,85.72
2017-09-30T18:55:36.597Z,84.15
2017-09-30T18:58:04.696Z,84.32
2017-09-30T19:00:31.786Z,83.73
2017-09-30T19:02:58.710Z,85.87
2017-09-30T19:05:25.653Z,87.80
2017-09-30T19:07:53.257Z,87.69
2017-09-30T19:10:20.207Z,86.17
2017-09-30T19:12:47.117Z,84.32
2017-09-30T19:15:14.015Z,85.85
2017-09-30T19:17:40.870Z,85.79
2017-09-30T19:20:07.787Z,86.71
2017-09-30T19:22:34.672Z,86.39
2017-09-30T19:25:02.316Z,86.22
2017-09-30T19:27:29.182Z,88.33
2017-09-30T19:29:56.104Z,87.56
2017-09-30T19:32:22.962Z,87.50
2017-09-30T19:34:49.822Z,86.23
2017-09-30T19:37:16.631Z,84.53
2017-09-30T19:39:43.460Z,85.32
2017-09-30T19:42:10.422Z,86.96
2017-09-30T19:44:39.450Z,87.56
2017-09-30T19:47:06.367Z,88.99
2017-09-30T19:49:34.315Z,86.34
2017-09-30T19:52:01.169Z,86.33
2017-09-30T19:54:28.056Z,86.79
2017-09-30T19:56:54.921Z,86.45
2017-09-30T19:59:21.803Z,87.47
2017-09-30T20:01:48.807Z,86.59
2017-09-30T20:04:15.655Z,86.17
2017-09-30T20:06:43.287Z,87.54
2017-09-30T20:09:10.215Z,86.37
2017-09-30T20:11:37.181Z,85.34
2017-09-30T20:14:04.181Z,84.22
2017-09-30T20:16:31.040Z,84.83
2017-09-30T20:18:57.888Z,84.61
2017-09-30T20:21:24.735Z,84.60
2017-09-30T20:23:51.570Z,84.83
2017-09-30T20:26:18.418Z,85.50
2017-09-30T20:28:45.246Z,87.87
2017-09-30T20:31:12.049Z,88.11
2017-09-30T20:33:38.880Z,90.01
2017-09-30T20:36:05.747Z,90.00
2017-09-30T20:38:32.589Z,90.55
2017-09-30T20:40:59.439Z,90.82
2017-09-30T20:43:26.307Z,90.77
2017-09-30T20:45:53.210Z,89.66
2017-09-30T20:48:20.188Z,86.55
2017-09-30T20:50:47.255Z,86.19
2017-09-30T20:53:14.117Z,87.07
2017-09-30T20:55:40.992Z,88.18
2017-09-30T20:58:07.824Z,88.08
2017-09-30T21:00:34.670Z,87.52
2017-09-30T21:03:01.499Z,86.58
2017-09-30T21:05:28.435Z,86.78
2017-09-30T21:07:55.300Z,86.07
2017-09-30T21:10:22.460Z,85.81
2017-09-30T21:12:49.319Z,85.32
2017-09-30T21:15:17.345Z,88.63
2017-09-30T21:17:44.146Z,90.26
2017-09-30T21:20:10.994Z,91.03
2017-09-30T21:22:38.622Z,91.21
2017-09-30T21:25:05.451Z,91.44
2017-09-30T21:27:32.287Z,91.74
2017-09-30T21:29:59.857Z,91.80
2017-09-30T21:32:26.775Z,91.77
2017-09-30T21:34:53.692Z,93.00
2017-09-30T21:37:21.261Z,91.13
2017-09-30T21:39:48.333Z,91.18
2017-09-30T21:42:15.413Z,92.25
2017-09-30T21:44:42.266Z,92.50
2017-09-30T21:47:09.844Z,91.09
2017-09-30T21:49:37.429Z,88.50
2017-09-30T21:52:04.290Z,88.99
2017-09-30T21:54:31.893Z,91.14
2017-09-30T21:56:58.718Z,92.59
2017-09-30T21:59:26.296Z,92.98
2017-09-30T22:01:53.888Z,93.18
2017-09-30T22:04:20.705Z,93.07
2017-09-30T22:06:47.525Z,93.23
2017-09-30T22:09:14.358Z,92.32
2017-09-30T22:11:41.976Z,91.85
2017-09-30T22:14:08.815Z,92.76
2017-09-30T22:16:35.627Z,91.83
2017-09-30T22:19:02.467Z,92.76
2017-09-30T22:21:29.304Z,92.20
2017-09-30T22:23:56.107Z,91.88
2017-09-30T22:26:22.933Z,91.86
2017-09-30T22:28:49.774Z,92.48
2017-09-30T22:31:17.307Z,92.23
2017-09-30T22:33:44.135Z,92.92
2017-09-30T22:36:11.506Z,92.40
2017-09-30T22:38:38.336Z,93.24
2017-09-30T22:41:05.994Z,93.29
2017-09-30T22:43:32.838Z,93.64
2017-09-30T22:45:59.654Z,93.19
2017-09-30T22:48:26.478Z,93.30
2017-09-30T22:50:53.302Z,93.24
2017-09-30T22:53:20.174Z,91.72
2017-09-30T22:55:46.999Z,91.80
2017-09-30T22:58:13.854Z,92.58
2017-09-30T23:00:40.703Z,92.10
2017-09-30T23:03:08.321Z,91.49
2017-09-30T23:05:35.196Z,89.00
2017-09-30T23:08:02.023Z,89.38
2017-09-30T23:10:28.838Z,91.72
2017-09-30T23:12:55.640Z,91.54
2017-09-30T23:15:22.463Z,92.71
2017-09-30T23:17:49.306Z,92.95
2017-09-30T23:20:16.146Z,93.69
2017-09-30T23:22:43.027Z,92.98
2017-09-30T23:25:09.813Z,92.56
2017-09-30T23:27:36.611Z,91.46
2017-09-30T23:30:03.497Z,92.15
2017-09-30T23:32:30.312Z,91.30
2017-09-30T23:34:57.851Z,90.51
2017-09-30T23:37:24.769Z,91.05
2017-09-30T23:39:51.596Z,92.91
2017-09-30T23:42:18.424Z,93.88
2017-09-30T23:44:45.265Z,94.08
2017-09-30T23:47:12.118Z,94.21
2017-09-30T23:49:38.917Z,93.84
2017-09-30T23:52:05.723Z,93.00
2017-09-30T23:54:33.319Z,92.73
2017-09-30T23:57:00.131Z,93.26
2017-09-30T23:59:27.005Z,94.16
